Time;durP1;ratioP1;P1;durP2;ratioP2;P2;SDS_P1;SDS_P2;PMS_P1;PMS_P2;Temp;Humidity;BMP_temperature;BMP_pressure;BME280_temperature;BME280_humidity;BME280_pressure;Samples;Min_cycle;Max_cycle;Signal;HPM_P1;HPM_P2
2021/01/20 00:01:35;;;;;;;;;;;9.50;99.90;;;;;;4995309;28;20461;-87
2021/01/20 00:04:01;;;;;;;;;;;9.50;99.90;;;;;;4998843;28;19926;-89
2021/01/20 00:06:28;;;;;;;;;;;9.50;99.90;;;;;;4999022;28;19925;-87
2021/01/20 00:08:55;;;;;;;;;;;9.50;99.90;;;;;;4998812;28;20346;-89
2021/01/20 00:11:21;;;;;;;;;;;9.50;99.90;;;;;;4998866;28;19926;-88
2021/01/20 00:13:52;;;;;;;;;;;9.50;99.90;;;;;;4999031;28;19948;-88
2021/01/20 00:16:18;;;;;;;;;;;9.50;99.90;;;;;;4998798;28;19925;-88
2021/01/20 00:18:45;;;;;;;;;;;9.50;99.90;;;;;;4998793;28;19926;-90
2021/01/20 00:21:11;;;;;;;;;;;9.50;99.90;;;;;;4998755;28;19926;-90
2021/01/20 00:23:37;;;;;;;;;;;9.50;99.90;;;;;;4999105;28;20258;-91
2021/01/20 00:26:05;;;;;;;;;;;9.50;99.90;;;;;;4998822;28;19925;-90
2021/01/20 00:28:31;;;;;;;;;;;9.50;99.90;;;;;;4998816;28;19926;-90
2021/01/20 00:30:57;;;;;;;;;;;9.60;99.90;;;;;;4998599;28;19926;-90
2021/01/20 00:33:24;;;;;;;;;;;9.60;99.90;;;;;;4998461;28;19933;-90
2021/01/20 00:35:50;;;;;;;;;;;9.60;99.90;;;;;;4998450;28;20263;-90
2021/01/20 00:38:16;;;;;;;;;;;9.60;99.90;;;;;;4998710;28;19926;-89
2021/01/20 00:40:43;;;;;;;;;;;9.50;99.90;;;;;;4998412;28;19956;-90
2021/01/20 00:43:10;;;;;;;;;;;9.60;99.90;;;;;;4998339;28;20366;-90
2021/01/20 00:45:36;;;;;;;;;;;9.50;99.90;;;;;;4998628;28;19926;-90
2021/01/20 00:48:03;;;;;;;;;;;9.50;99.90;;;;;;4998484;28;20358;-90
2021/01/20 00:50:29;;;;;;;;;;;9.60;99.90;;;;;;4998416;28;19965;-88
2021/01/20 00:52:56;;;;;;;;;;;9.60;99.90;;;;;;4998343;28;19936;-90
2021/01/20 00:55:22;;;;;;;;;;;9.50;99.90;;;;;;4998111;28;19930;-91
2021/01/20 00:57:48;;;;;;;;;;;9.50;99.90;;;;;;4998182;28;20365;-89
2021/01/20 01:00:16;;;;;;;;;;;9.50;99.90;;;;;;4998299;28;19936;-89
2021/01/20 01:02:42;;;;;;;;;;;9.50;99.90;;;;;;4998323;28;19940;-91
2021/01/20 01:05:09;;;;;;;;;;;9.50;99.90;;;;;;4998085;28;19925;-90
2021/01/20 01:07:36;;;;;;;;;;;9.50;99.90;;;;;;4998046;28;20310;-90
2021/01/20 01:10:02;;;;;;;;;;;9.50;99.90;;;;;;4997865;28;19940;-90
2021/01/20 01:12:29;;;;;;;;;;;9.50;99.90;;;;;;4998117;28;19934;-89
2021/01/20 01:14:55;;;;;;;;;;;9.60;99.90;;;;;;4996728;28;19934;-90
2021/01/20 01:17:22;;;;;;;;;;;9.60;99.90;;;;;;4997863;28;19926;-90
2021/01/20 01:19:49;;;;;;;;;;;9.60;99.90;;;;;;4997719;28;20003;-91
2021/01/20 01:22:15;;;;;;;;;;;9.60;99.90;;;;;;4997512;28;19926;-90
2021/01/20 01:24:42;;;;;;;;;;;9.60;99.90;;;;;;4997682;28;20274;-90
2021/01/20 01:27:08;;;;;;;;;;;9.60;99.90;;;;;;4997730;28;19956;-89
2021/01/20 01:29:34;;;;;;;;;;;9.50;99.90;;;;;;4997621;28;19926;-90
2021/01/20 01:32:01;;;;;;;;;;;9.60;99.90;;;;;;4997459;28;19926;-89
2021/01/20 01:34:28;;;;;;;;;;;9.60;99.90;;;;;;4997646;28;20354;-89
2021/01/20 01:36:54;;;;;;;;;;;9.60;99.90;;;;;;4997554;28;20262;-90
2021/01/20 01:39:21;;;;;;;;;;;9.60;99.90;;;;;;4997254;28;19976;-89
2021/01/20 01:41:47;;;;;;;;;;;9.60;99.90;;;;;;4997700;28;19933;-90
2021/01/20 01:44:13;;;;;;;;;;;9.60;99.90;;;;;;4997242;28;19929;-89
2021/01/20 01:46:40;;;;;;;;;;;9.60;99.90;;;;;;4996784;28;19936;-90
2021/01/20 01:49:06;;;;;;;;;;;9.50;99.90;;;;;;4997141;28;19952;-89
2021/01/20 01:51:33;;;;;;;;;;;9.60;99.90;;;;;;4997020;28;20289;-89
2021/01/20 01:54:00;;;;;;;;;;;9.60;99.90;;;;;;4997209;28;19925;-89
2021/01/20 01:56:26;;;;;;;;;;;9.60;99.90;;;;;;4996932;28;19926;-90
2021/01/20 01:58:52;;;;;;;;;;;9.60;99.90;;;;;;4996794;28;19930;-89
2021/01/20 02:01:19;;;;;;;;;;;9.60;99.90;;;;;;4997025;28;20278;-90
2021/01/20 02:03:47;;;;;;;;;;;9.60;99.90;;;;;;4996851;28;19934;-90
2021/01/20 02:06:14;;;;;;;;;;;9.60;99.90;;;;;;4996679;28;19926;-89
2021/01/20 02:08:41;;;;;;;;;;;9.60;99.90;;;;;;4996806;28;19932;-90
2021/01/20 02:11:10;;;;;;;;;;;9.60;99.90;;;;;;4997038;28;19936;-89
2021/01/20 02:13:39;;;;;;;;;;;9.60;99.90;;;;;;4996854;28;20310;-90
2021/01/20 02:16:06;;;;;;;;;;;9.60;99.90;;;;;;4996542;28;19930;-89
2021/01/20 02:18:33;;;;;;;;;;;9.60;99.90;;;;;;4996815;28;19930;-91
2021/01/20 02:21:18;;;;;;;;;;;9.60;99.90;;;;;;4996622;28;19933;-90
2021/01/20 02:23:46;;;;;;;;;;;9.60;99.90;;;;;;4996891;28;20258;-90
2021/01/20 02:26:24;;;;;;;;;;;9.60;99.90;;;;;;4996482;28;20048;-91
2021/01/20 02:29:09;;;;;;;;;;;9.60;99.90;;;;;;4996492;28;19948;-90
2021/01/20 02:31:36;;;;;;;;;;;9.60;99.90;;;;;;4996603;28;20263;-89
2021/01/20 02:34:05;;;;;;;;;;;9.60;99.90;;;;;;4996380;28;19929;-90
2021/01/20 02:36:31;;;;;;;;;;;9.60;99.90;;;;;;4998628;28;19976;-90
2021/01/20 02:38:57;;;;;;;;;;;9.60;99.90;;;;;;5000110;28;19936;-89
2021/01/20 02:41:24;;;;;;;;;;;9.60;99.90;;;;;;4998593;28;19947;-88
2021/01/20 02:43:50;;;;;;;;;;;9.60;99.90;;;;;;4997818;28;19926;-89
2021/01/20 02:46:17;;;;;;;;;;;9.60;99.90;;;;;;4996912;28;19926;-90
2021/01/20 02:48:44;;;;;;;;;;;9.60;99.90;;;;;;4996294;28;19971;-90
2021/01/20 02:51:11;;;;;;;;;;;9.60;99.90;;;;;;4996315;28;19925;-89
2021/01/20 02:53:37;;;;;;;;;;;9.60;99.90;;;;;;4995924;28;19925;-90
2021/01/20 02:56:05;;;;;;;;;;;9.60;99.90;;;;;;4995787;28;19926;-89
2021/01/20 02:58:32;;;;;;;;;;;9.60;99.90;;;;;;4995798;28;19929;-90
2021/01/20 03:00:59;;;;;;;;;;;9.60;99.90;;;;;;4996028;28;19925;-90
2021/01/20 03:03:25;;;;;;;;;;;9.60;99.90;;;;;;4995840;28;20439;-89
2021/01/20 03:05:52;;;;;;;;;;;9.70;99.90;;;;;;4995737;28;19926;-89
2021/01/20 03:08:19;;;;;;;;;;;9.70;99.90;;;;;;4995798;28;20236;-89
2021/01/20 03:10:45;;;;;;;;;;;9.60;99.90;;;;;;4995850;28;19926;-89
2021/01/20 03:13:12;;;;;;;;;;;9.70;99.90;;;;;;4995826;28;19936;-89
2021/01/20 03:15:39;;;;;;;;;;;9.70;99.90;;;;;;4995818;28;19949;-89
2021/01/20 03:18:05;;;;;;;;;;;9.60;99.90;;;;;;4995800;28;19987;-90
2021/01/20 03:20:32;;;;;;;;;;;9.70;99.90;;;;;;4995622;28;19927;-90
2021/01/20 03:22:59;;;;;;;;;;;9.70;99.90;;;;;;4995464;28;19926;-89
2021/01/20 03:25:25;;;;;;;;;;;9.70;99.90;;;;;;4995367;28;19926;-89
2021/01/20 03:27:52;;;;;;;;;;;9.70;99.90;;;;;;4995623;28;19926;-90
2021/01/20 03:30:18;;;;;;;;;;;9.70;99.90;;;;;;4995852;28;19947;-90
2021/01/20 03:32:44;;;;;;;;;;;9.60;99.90;;;;;;4995524;28;19936;-90
2021/01/20 03:35:11;;;;;;;;;;;9.60;99.90;;;;;;4995514;28;20351;-90
2021/01/20 03:37:38;;;;;;;;;;;9.60;99.90;;;;;;4997426;28;19932;-90
2021/01/20 03:40:06;;;;;;;;;;;9.70;99.90;;;;;;4999805;28;19952;-88
2021/01/20 03:42:32;;;;;;;;;;;9.60;99.90;;;;;;4999970;28;20354;-92
2021/01/20 03:44:58;;;;;;;;;;;9.70;99.90;;;;;;5000089;28;19925;-93
2021/01/20 03:47:25;;;;;;;;;;;9.70;99.90;;;;;;4999969;28;19936;-92
2021/01/20 03:49:51;;;;;;;;;;;9.70;99.90;;;;;;5000109;28;20408;-93
2021/01/20 03:52:17;;;;;;;;;;;9.70;99.90;;;;;;4999855;28;19925;-93
2021/01/20 03:54:44;;;;;;;;;;;9.70;99.90;;;;;;4999800;28;19925;-94
2021/01/20 03:57:11;;;;;;;;;;;9.70;99.90;;;;;;4999419;28;19980;-93
2021/01/20 03:59:38;;;;;;;;;;;9.70;99.90;;;;;;4999588;28;20339;-93
2021/01/20 04:02:05;;;;;;;;;;;9.70;99.90;;;;;;4999672;28;19930;-93
2021/01/20 04:04:32;;;;;;;;;;;9.60;99.90;;;;;;4999693;28;20263;-93
2021/01/20 04:06:59;;;;;;;;;;;9.60;99.90;;;;;;4999539;28;19933;-94
2021/01/20 04:09:25;;;;;;;;;;;9.60;99.90;;;;;;4999053;28;19926;-92
2021/01/20 04:11:52;;;;;;;;;;;9.70;99.90;;;;;;4999575;28;19926;-93
2021/01/20 04:14:19;;;;;;;;;;;9.70;99.90;;;;;;4999284;28;20024;-94
2021/01/20 04:16:45;;;;;;;;;;;9.70;99.90;;;;;;4999313;28;19948;-94
2021/01/20 04:19:12;;;;;;;;;;;9.70;99.90;;;;;;4999676;28;19936;-94
2021/01/20 04:21:38;;;;;;;;;;;9.70;99.90;;;;;;4999153;28;19953;-93
2021/01/20 04:24:05;;;;;;;;;;;9.60;99.90;;;;;;4999369;28;19937;-93
2021/01/20 04:26:31;;;;;;;;;;;9.70;99.90;;;;;;4999012;28;19930;-94
2021/01/20 04:28:58;;;;;;;;;;;9.70;99.90;;;;;;4999037;28;19936;-93
2021/01/20 04:31:25;;;;;;;;;;;9.70;99.90;;;;;;4999325;28;19972;-92
2021/01/20 04:33:51;;;;;;;;;;;9.60;99.90;;;;;;4998973;28;19926;-94
2021/01/20 04:36:18;;;;;;;;;;;9.70;99.90;;;;;;4998929;28;20254;-92
2021/01/20 04:38:44;;;;;;;;;;;9.70;99.90;;;;;;4999023;28;19925;-92
2021/01/20 04:41:10;;;;;;;;;;;9.70;99.90;;;;;;4998865;28;19933;-93
2021/01/20 04:43:37;;;;;;;;;;;9.70;99.90;;;;;;4998967;28;19926;-93
2021/01/20 04:46:03;;;;;;;;;;;9.70;99.90;;;;;;4998705;28;19930;-92
2021/01/20 04:48:32;;;;;;;;;;;9.70;99.90;;;;;;4998627;28;19992;-93
2021/01/20 04:50:58;;;;;;;;;;;9.70;99.90;;;;;;4998808;28;19926;-93
2021/01/20 04:53:24;;;;;;;;;;;9.70;99.90;;;;;;4998647;28;19926;-93
2021/01/20 04:55:51;;;;;;;;;;;9.70;99.90;;;;;;4999164;28;19926;-93
2021/01/20 04:58:17;;;;;;;;;;;9.70;99.90;;;;;;4998836;28;19932;-93
2021/01/20 05:00:43;;;;;;;;;;;9.70;99.90;;;;;;4998616;28;20266;-94
2021/01/20 05:03:10;;;;;;;;;;;9.70;99.90;;;;;;4998601;28;19932;-92
2021/01/20 05:05:37;;;;;;;;;;;9.70;99.90;;;;;;4998784;28;20020;-94
2021/01/20 05:08:04;;;;;;;;;;;9.70;99.90;;;;;;4998424;28;19930;-93
2021/01/20 05:10:30;;;;;;;;;;;9.70;99.90;;;;;;4998436;28;19933;-93
2021/01/20 05:12:57;;;;;;;;;;;9.70;99.90;;;;;;4998332;28;20000;-92
2021/01/20 05:15:29;;;;;;;;;;;9.70;99.90;;;;;;4998386;28;19987;-92
2021/01/20 05:17:55;;;;;;;;;;;9.70;99.90;;;;;;4998552;28;19926;-95
2021/01/20 05:20:31;;;;;;;;;;;9.70;99.90;;;;;;4998233;28;20009;-93
2021/01/20 05:22:58;;;;;;;;;;;9.70;99.90;;;;;;4997856;28;19926;-93
2021/01/20 05:25:28;;;;;;;;;;;9.70;99.90;;;;;;4997860;28;20350;-93
2021/01/20 05:27:54;;;;;;;;;;;9.70;99.90;;;;;;4998166;28;20072;-94
2021/01/20 05:30:21;;;;;;;;;;;9.70;99.90;;;;;;4998113;28;19926;-94
2021/01/20 05:32:54;;;;;;;;;;;9.70;99.90;;;;;;4998248;28;19940;-93
2021/01/20 05:35:20;;;;;;;;;;;9.80;99.90;;;;;;4997832;28;20361;-94
2021/01/20 05:37:47;;;;;;;;;;;9.70;99.90;;;;;;4998004;28;19926;-95
2021/01/20 05:40:15;;;;;;;;;;;9.70;99.90;;;;;;4997875;28;20049;-94
2021/01/20 05:42:51;;;;;;;;;;;9.70;99.90;;;;;;4997966;28;19932;-93
2021/01/20 05:45:18;;;;;;;;;;;9.70;99.90;;;;;;4997823;28;19926;-93
2021/01/20 05:48:00;;;;;;;;;;;9.70;99.90;;;;;;4997782;28;19937;-95
2021/01/20 05:50:26;;;;;;;;;;;9.70;99.90;;;;;;4997793;28;19937;-93
2021/01/20 05:53:02;;;;;;;;;;;9.70;99.90;;;;;;4997767;28;19936;-94
2021/01/20 05:55:29;;;;;;;;;;;9.70;99.90;;;;;;4997611;28;19925;-95
2021/01/20 05:57:56;;;;;;;;;;;9.70;99.90;;;;;;4997734;28;19934;-93
2021/01/20 06:00:22;;;;;;;;;;;9.70;99.90;;;;;;4997215;28;20361;-93
2021/01/20 06:02:49;;;;;;;;;;;9.70;99.90;;;;;;4997595;28;19926;-94
2021/01/20 06:05:15;;;;;;;;;;;9.70;99.90;;;;;;4997063;28;20351;-93
2021/01/20 06:07:42;;;;;;;;;;;9.70;99.90;;;;;;4997187;28;19926;-94
2021/01/20 06:10:09;;;;;;;;;;;9.70;99.90;;;;;;4997369;28;19926;-94
2021/01/20 06:12:36;;;;;;;;;;;9.70;99.90;;;;;;4997157;28;20121;-92
2021/01/20 06:15:02;;;;;;;;;;;9.70;99.90;;;;;;4997197;28;19925;-94
2021/01/20 06:17:30;;;;;;;;;;;9.70;99.90;;;;;;4996854;28;20389;-94
2021/01/20 06:19:58;;;;;;;;;;;9.70;99.90;;;;;;4997176;28;20004;-94
2021/01/20 06:22:24;;;;;;;;;;;9.70;99.90;;;;;;4997002;28;20334;-94
2021/01/20 06:24:51;;;;;;;;;;;9.70;99.90;;;;;;4996852;28;19933;-93
2021/01/20 06:27:20;;;;;;;;;;;9.70;99.90;;;;;;4996744;28;19930;-94
2021/01/20 06:29:49;;;;;;;;;;;9.70;99.90;;;;;;4996823;28;19926;-93
2021/01/20 06:32:16;;;;;;;;;;;9.70;99.90;;;;;;4996970;28;19934;-94
2021/01/20 06:34:48;;;;;;;;;;;9.70;99.90;;;;;;4996687;28;19926;-93
2021/01/20 06:37:29;;;;;;;;;;;9.70;99.90;;;;;;4996794;28;19991;-93
2021/01/20 06:39:56;;;;;;;;;;;9.70;99.90;;;;;;4996371;28;19937;-93
2021/01/20 06:42:29;;;;;;;;;;;9.70;99.90;;;;;;4997061;28;19925;-93
2021/01/20 06:45:13;;;;;;;;;;;9.70;99.90;;;;;;4996636;28;19933;-93
2021/01/20 06:47:54;;;;;;;;;;;9.70;99.90;;;;;;4996611;28;19933;-94
2021/01/20 06:50:21;;;;;;;;;;;9.70;99.90;;;;;;4995839;28;20405;-93
2021/01/20 06:52:59;;;;;;;;;;;9.60;99.90;;;;;;4996587;28;19929;-93
2021/01/20 06:55:35;;;;;;;;;;;9.70;99.90;;;;;;4996537;28;20007;-95
2021/01/20 06:58:17;;;;;;;;;;;9.70;99.90;;;;;;4996435;28;20016;-95
2021/01/20 07:00:44;;;;;;;;;;;9.70;99.90;;;;;;4996512;28;19937;-93
2021/01/20 07:03:11;;;;;;;;;;;9.70;99.90;;;;;;4996559;28;19925;-93
2021/01/20 07:05:37;;;;;;;;;;;9.70;99.90;;;;;;4996428;28;19936;-95
2021/01/20 07:08:07;;;;;;;;;;;9.70;99.90;;;;;;4996306;28;19936;-93
2021/01/20 07:11:07;;;;;;;;;;;9.70;99.90;;;;;;4996206;28;20025;-93
2021/01/20 07:13:34;;;;;;;;;;;9.70;99.90;;;;;;4996099;28;19929;-94
2021/01/20 07:16:02;;;;;;;;;;;9.70;99.90;;;;;;4995965;28;20361;-92
2021/01/20 07:18:28;;;;;;;;;;;9.70;99.90;;;;;;4995755;28;20339;-94
2021/01/20 07:20:54;;;;;;;;;;;9.70;99.90;;;;;;4996240;28;19925;-94
2021/01/20 07:23:21;;;;;;;;;;;9.70;99.90;;;;;;4996089;28;19925;-93
2021/01/20 07:25:48;;;;;;;;;;;9.70;99.90;;;;;;4996464;28;20016;-93
2021/01/20 07:28:14;;;;;;;;;;;9.70;99.90;;;;;;4996302;28;19925;-93
2021/01/20 07:30:41;;;;;;;;;;;9.70;99.90;;;;;;4996199;28;19952;-95
2021/01/20 07:33:18;;;;;;;;;;;9.70;99.90;;;;;;4996181;28;19925;-94
2021/01/20 07:35:44;;;;;;;;;;;9.70;99.90;;;;;;4996124;28;19930;-94
2021/01/20 07:38:10;;;;;;;;;;;9.70;99.90;;;;;;4996205;28;19926;-93
2021/01/20 07:40:37;;;;;;;;;;;9.80;99.90;;;;;;4995904;28;19925;-93
2021/01/20 07:43:04;;;;;;;;;;;9.80;99.90;;;;;;4996092;28;19930;-94
2021/01/20 07:45:31;;;;;;;;;;;9.80;99.90;;;;;;4996114;28;20033;-95
2021/01/20 07:47:57;;;;;;;;;;;9.80;99.90;;;;;;4996036;28;19930;-93
2021/01/20 07:50:36;;;;;;;;;;;9.80;99.90;;;;;;4995903;28;19929;-93
2021/01/20 07:53:03;;;;;;;;;;;9.80;99.90;;;;;;4995868;28;20373;-93
2021/01/20 07:55:30;;;;;;;;;;;9.80;99.90;;;;;;4995780;28;19937;-94
2021/01/20 07:57:56;;;;;;;;;;;9.80;99.90;;;;;;4996049;28;19952;-93
2021/01/20 08:00:23;;;;;;;;;;;9.80;99.90;;;;;;4995739;28;19926;-93
2021/01/20 08:02:49;;;;;;;;;;;9.80;99.90;;;;;;4995767;28;19936;-93
2021/01/20 08:05:15;;;;;;;;;;;9.80;99.90;;;;;;4995768;28;20346;-93
2021/01/20 08:07:43;;;;;;;;;;;9.80;99.90;;;;;;4995908;28;19928;-92
2021/01/20 08:10:17;;;;;;;;;;;9.80;99.90;;;;;;4995786;28;19926;-93
2021/01/20 08:12:44;;;;;;;;;;;9.80;99.90;;;;;;4996188;28;19937;-93
2021/01/20 08:15:10;;;;;;;;;;;10.10;99.90;;;;;;4995931;28;20024;-93
2021/01/20 08:17:37;;;;;;;;;;;9.80;99.90;;;;;;4995513;28;19926;-94
2021/01/20 08:20:04;;;;;;;;;;;9.80;99.90;;;;;;4995757;28;20385;-95
2021/01/20 08:22:30;;;;;;;;;;;9.80;99.90;;;;;;4995377;28;19929;-94
2021/01/20 08:24:58;;;;;;;;;;;9.80;99.90;;;;;;4999387;28;19948;-94
2021/01/20 08:27:24;;;;;;;;;;;9.80;99.90;;;;;;4999212;28;19942;-93
2021/01/20 08:29:51;;;;;;;;;;;9.80;99.90;;;;;;4999164;28;19979;-94
2021/01/20 08:32:18;;;;;;;;;;;9.80;99.90;;;;;;4999204;28;19926;-95
2021/01/20 08:34:44;;;;;;;;;;;9.80;99.90;;;;;;4999406;28;19936;-94
2021/01/20 08:37:11;;;;;;;;;;;9.80;99.90;;;;;;4998913;28;19948;-93
2021/01/20 08:39:38;;;;;;;;;;;9.80;99.90;;;;;;4999039;28;19926;-93
2021/01/20 08:42:13;;;;;;;;;;;9.70;99.90;;;;;;4999262;28;19977;-94
2021/01/20 08:44:39;;;;;;;;;;;9.80;99.90;;;;;;4998899;28;20277;-93
2021/01/20 08:47:05;;;;;;;;;;;9.80;99.90;;;;;;4998945;28;20313;-93
2021/01/20 08:49:32;;;;;;;;;;;9.80;99.90;;;;;;4998988;28;19926;-93
2021/01/20 08:51:58;;;;;;;;;;;9.80;99.90;;;;;;4998904;28;19934;-95
2021/01/20 08:54:25;;;;;;;;;;;9.70;99.90;;;;;;4998738;28;19988;-93
2021/01/20 08:56:51;;;;;;;;;;;9.70;99.90;;;;;;4998513;28;20025;-93
2021/01/20 08:59:18;;;;;;;;;;;9.80;99.90;;;;;;4998775;28;19926;-93
2021/01/20 09:01:45;;;;;;;;;;;9.80;99.90;;;;;;4998532;28;19930;-93
2021/01/20 09:04:11;;;;;;;;;;;9.80;99.90;;;;;;4998726;28;19926;-94
2021/01/20 09:06:38;;;;;;;;;;;9.80;99.90;;;;;;4998392;28;19926;-94
2021/01/20 09:09:04;;;;;;;;;;;9.80;99.90;;;;;;4998562;28;19930;-94
2021/01/20 09:11:31;;;;;;;;;;;9.80;99.90;;;;;;4998079;28;19925;-93
2021/01/20 09:13:57;;;;;;;;;;;9.80;99.90;;;;;;4998404;28;20068;-92
2021/01/20 09:16:27;;;;;;;;;;;9.80;99.90;;;;;;4998225;28;19944;-93
2021/01/20 09:18:54;;;;;;;;;;;9.80;99.90;;;;;;4998267;28;20347;-93
2021/01/20 09:21:20;;;;;;;;;;;9.80;99.90;;;;;;4998087;28;19937;-92
2021/01/20 09:23:47;;;;;;;;;;;9.80;99.90;;;;;;4998067;28;19926;-94
2021/01/20 09:26:13;;;;;;;;;;;9.80;99.90;;;;;;4998019;28;20194;-93
2021/01/20 09:28:40;;;;;;;;;;;9.80;99.90;;;;;;4998180;28;20372;-92
2021/01/20 09:31:06;;;;;;;;;;;9.80;99.90;;;;;;4998144;28;19926;-93
2021/01/20 09:33:33;;;;;;;;;;;9.80;99.90;;;;;;4997803;28;19925;-93
2021/01/20 09:36:00;;;;;;;;;;;9.80;99.90;;;;;;4997062;28;19932;-93
2021/01/20 09:38:26;;;;;;;;;;;9.80;99.90;;;;;;4997907;28;19925;-92
2021/01/20 09:40:52;;;;;;;;;;;9.90;99.90;;;;;;4997598;28;20276;-92
2021/01/20 09:43:21;;;;;;;;;;;9.90;99.90;;;;;;4997785;28;20310;-92
2021/01/20 09:45:48;;;;;;;;;;;9.90;99.90;;;;;;4997655;28;19937;-92
2021/01/20 09:48:15;;;;;;;;;;;9.90;99.90;;;;;;4997593;28;19930;-92
2021/01/20 09:50:44;;;;;;;;;;;9.90;99.90;;;;;;4998174;28;20084;-93
2021/01/20 09:53:11;;;;;;;;;;;9.90;99.90;;;;;;4997822;28;20302;-92
2021/01/20 09:55:37;;;;;;;;;;;9.90;99.90;;;;;;4997332;28;19925;-92
2021/01/20 09:58:03;;;;;;;;;;;9.90;99.90;;;;;;4997393;28;19926;-92
2021/01/20 10:00:30;;;;;;;;;;;9.90;99.90;;;;;;4997574;28;19936;-92
2021/01/20 10:02:56;;;;;;;;;;;9.90;99.90;;;;;;4997405;28;19936;-92
2021/01/20 10:05:22;;;;;;;;;;;9.90;99.90;;;;;;4997418;28;19936;-92
2021/01/20 10:07:50;;;;;;;;;;;9.90;99.90;;;;;;4996821;28;19932;-93
2021/01/20 10:10:16;;;;;;;;;;;10.00;99.90;;;;;;4997272;28;19926;-93
2021/01/20 10:12:42;;;;;;;;;;;9.90;99.90;;;;;;4997516;28;19929;-92
2021/01/20 10:15:09;;;;;;;;;;;10.00;99.90;;;;;;4997262;28;19925;-94
2021/01/20 10:17:36;;;;;;;;;;;9.90;99.90;;;;;;4997114;28;19930;-93
2021/01/20 10:20:02;;;;;;;;;;;9.90;99.90;;;;;;4997187;28;19926;-93
2021/01/20 10:22:29;;;;;;;;;;;9.90;99.90;;;;;;4996816;28;19925;-92
2021/01/20 10:24:56;;;;;;;;;;;9.90;99.90;;;;;;4997026;28;20337;-93
2021/01/20 10:27:23;;;;;;;;;;;9.90;99.90;;;;;;4998771;28;19925;-92
2021/01/20 10:29:49;;;;;;;;;;;12.60;99.90;;;;;;5001642;28;19953;-91
2021/01/20 10:32:15;;;;;;;;;;;10.00;99.90;;;;;;4996844;28;19926;-93
2021/01/20 10:34:42;;;;;;;;;;;10.00;99.90;;;;;;4996860;28;19925;-92
2021/01/20 10:37:08;;;;;;;;;;;10.00;99.90;;;;;;4996656;28;20016;-92
2021/01/20 10:39:35;;;;;;;;;;;10.00;99.90;;;;;;4996880;28;20349;-93
2021/01/20 10:42:02;;;;;;;;;;;10.00;99.90;;;;;;4996853;28;19936;-93
2021/01/20 10:44:29;;;;;;;;;;;10.00;99.90;;;;;;4996876;28;19925;-95
2021/01/20 10:46:55;;;;;;;;;;;10.00;99.90;;;;;;4996516;28;19933;-95
2021/01/20 10:49:21;;;;;;;;;;;9.90;99.90;;;;;;4995767;28;20017;-94
2021/01/20 10:51:48;;;;;;;;;;;9.90;99.90;;;;;;4996740;28;19936;-94
2021/01/20 10:54:14;;;;;;;;;;;9.90;99.90;;;;;;4996474;28;19930;-94
2021/01/20 10:56:41;;;;;;;;;;;9.90;99.90;;;;;;4996609;28;20361;-94
2021/01/20 10:59:08;;;;;;;;;;;9.90;99.90;;;;;;4996656;28;20028;-94
2021/01/20 11:01:35;;;;;;;;;;;10.00;99.90;;;;;;4996539;28;20020;-91
2021/01/20 11:04:01;;;;;;;;;;;10.00;99.90;;;;;;4995981;28;19936;-93
2021/01/20 11:06:27;;;;;;;;;;;10.00;99.90;;;;;;4996152;28;19936;-93
2021/01/20 11:08:56;;;;;;;;;;;10.00;99.90;;;;;;4996109;28;19929;-91
2021/01/20 11:11:22;;;;;;;;;;;10.00;99.90;;;;;;4996487;28;19926;-94
2021/01/20 11:13:49;;;;;;;;;;;7.40;99.90;;;;;;4996470;28;19952;-94
2021/01/20 11:16:16;;;;;;;;;;;10.00;99.90;;;;;;4996211;28;19933;-93
2021/01/20 11:18:43;;;;;;;;;;;10.10;99.90;;;;;;4995693;28;20021;-92
2021/01/20 11:21:14;;;;;;;;;;;10.10;99.90;;;;;;4996607;28;20008;-92
2021/01/20 11:23:41;;;;;;;;;;;10.10;99.90;;;;;;4996126;28;19953;-92
2021/01/20 11:26:08;;;;;;;;;;;10.10;99.90;;;;;;4996190;28;19925;-91
2021/01/20 11:28:34;;;;;;;;;;;10.10;99.90;;;;;;4995964;28;19930;-92
2021/01/20 11:31:01;;;;;;;;;;;10.10;99.90;;;;;;4996033;28;19983;-92
2021/01/20 11:33:28;;;;;;;;;;;10.10;99.90;;;;;;4996265;28;19984;-92
2021/01/20 11:35:54;;;;;;;;;;;10.10;99.90;;;;;;4995874;28;20351;-93
2021/01/20 11:38:21;;;;;;;;;;;10.10;99.90;;;;;;4996131;28;20373;-92
2021/01/20 11:40:47;;;;;;;;;;;10.10;99.90;;;;;;4995469;28;20016;-92
2021/01/20 11:43:13;;;;;;;;;;;10.10;99.90;;;;;;4995199;28;19925;-91
2021/01/20 11:45:40;;;;;;;;;;;10.20;99.90;;;;;;4998899;28;20347;-89
2021/01/20 11:48:07;;;;;;;;;;;10.20;99.90;;;;;;4996013;28;19926;-90
2021/01/20 11:50:34;;;;;;;;;;;10.20;99.90;;;;;;4995469;28;19976;-92
2021/01/20 11:53:00;;;;;;;;;;;10.20;99.90;;;;;;5000554;28;19932;-91
2021/01/20 11:55:27;;;;;;;;;;;10.10;99.90;;;;;;4995445;28;19932;-91
2021/01/20 11:57:53;;;;;;;;;;;10.10;99.90;;;;;;4996243;28;19933;-91
2021/01/20 12:00:20;;;;;;;;;;;10.10;99.90;;;;;;4999675;28;20367;-93
2021/01/20 12:02:46;;;;;;;;;;;10.10;99.90;;;;;;4999909;28;19930;-92
2021/01/20 12:05:14;;;;;;;;;;;10.10;99.90;;;;;;4999768;28;19925;-92
2021/01/20 12:07:43;;;;;;;;;;;10.10;99.90;;;;;;4999670;28;19936;-91
2021/01/20 12:10:09;;;;;;;;;;;10.10;99.90;;;;;;4999650;28;19926;-91
2021/01/20 12:12:36;;;;;;;;;;;10.10;99.90;;;;;;4999612;28;19936;-91
2021/01/20 12:15:02;;;;;;;;;;;10.10;99.90;;;;;;4999296;28;19972;-92
2021/01/20 12:17:30;;;;;;;;;;;10.10;99.90;;;;;;4999236;28;19932;-92
2021/01/20 12:19:56;;;;;;;;;;;10.10;99.90;;;;;;4999205;28;19926;-91
2021/01/20 12:22:22;;;;;;;;;;;10.10;99.90;;;;;;4999034;28;19987;-91
2021/01/20 12:24:50;;;;;;;;;;;10.10;99.90;;;;;;4999130;28;20351;-92
2021/01/20 12:27:16;;;;;;;;;;;10.20;99.90;;;;;;4999135;28;19926;-91
2021/01/20 12:29:43;;;;;;;;;;;10.20;99.90;;;;;;4999039;28;20342;-92
2021/01/20 12:32:09;;;;;;;;;;;10.20;99.90;;;;;;4999037;28;19925;-91
2021/01/20 12:34:35;;;;;;;;;;;10.20;99.90;;;;;;4998960;28;19930;-92
2021/01/20 12:37:02;;;;;;;;;;;10.20;99.90;;;;;;4998928;28;19932;-91
2021/01/20 12:39:28;;;;;;;;;;;10.20;99.90;;;;;;4998913;28;19932;-92
2021/01/20 12:41:55;;;;;;;;;;;10.20;99.90;;;;;;4999340;28;19930;-92
2021/01/20 12:44:22;;;;;;;;;;;10.20;99.90;;;;;;4999089;28;19926;-91
2021/01/20 12:46:48;;;;;;;;;;;10.20;99.90;;;;;;4998954;28;19975;-91
2021/01/20 12:49:14;;;;;;;;;;;10.20;99.90;;;;;;4998418;28;19940;-92
2021/01/20 12:51:41;;;;;;;;;;;10.20;99.90;;;;;;4998341;28;19926;-92
2021/01/20 12:54:08;;;;;;;;;;;10.20;99.90;;;;;;4998501;28;20262;-92
2021/01/20 12:56:34;;;;;;;;;;;10.20;99.90;;;;;;4998246;28;19933;-91
2021/01/20 12:59:01;;;;;;;;;;;10.20;99.90;;;;;;4997801;28;19926;-91
2021/01/20 13:01:28;;;;;;;;;;;10.20;99.90;;;;;;4997870;28;19936;-90
2021/01/20 13:03:54;;;;;;;;;;;10.20;99.90;;;;;;4998007;28;19925;-90
2021/01/20 13:06:20;;;;;;;;;;;10.20;99.90;;;;;;4998140;28;19972;-90
2021/01/20 13:08:47;;;;;;;;;;;10.20;99.90;;;;;;4997674;28;19926;-90
2021/01/20 13:11:14;;;;;;;;;;;10.20;99.90;;;;;;4996984;28;19953;-91
2021/01/20 13:13:40;;;;;;;;;;;10.20;99.90;;;;;;4997951;28;19926;-91
2021/01/20 13:16:08;;;;;;;;;;;10.20;99.90;;;;;;4998034;28;19926;-91
2021/01/20 13:18:35;;;;;;;;;;;10.20;99.90;;;;;;4998262;28;20435;-92
2021/01/20 13:21:01;;;;;;;;;;;10.20;99.90;;;;;;4998069;28;19941;-90
2021/01/20 13:23:28;;;;;;;;;;;10.10;99.90;;;;;;4997677;28;20342;-91
2021/01/20 13:25:54;;;;;;;;;;;10.10;99.90;;;;;;4997865;28;19930;-91
2021/01/20 13:28:20;;;;;;;;;;;10.10;99.90;;;;;;4997745;28;19926;-91
2021/01/20 13:30:47;;;;;;;;;;;10.10;99.90;;;;;;4997696;28;19926;-92
2021/01/20 13:33:15;;;;;;;;;;;10.10;99.90;;;;;;4997202;28;19987;-89
2021/01/20 13:35:43;;;;;;;;;;;10.10;99.90;;;;;;4999054;28;19926;-90
2021/01/20 13:38:09;;;;;;;;;;;10.10;99.90;;;;;;5004940;28;20530;-89
2021/01/20 13:40:35;;;;;;;;;;;10.20;99.90;;;;;;5001111;28;19933;-89
2021/01/20 13:43:02;;;;;;;;;;;10.20;99.90;;;;;;4997685;28;19925;-90
2021/01/20 13:45:31;;;;;;;;;;;10.20;99.90;;;;;;4997379;28;19952;-90
2021/01/20 13:47:57;;;;;;;;;;;10.20;99.90;;;;;;4997653;28;19933;-90
2021/01/20 13:50:29;;;;;;;;;;;10.30;99.90;;;;;;4997399;28;19926;-90
2021/01/20 13:52:55;;;;;;;;;;;10.30;99.90;;;;;;4997171;28;19981;-90
2021/01/20 13:55:22;;;;;;;;;;;10.30;99.90;;;;;;4997139;28;19926;-90
2021/01/20 13:57:48;;;;;;;;;;;10.20;99.90;;;;;;4997440;28;19930;-90
2021/01/20 14:00:19;;;;;;;;;;;10.20;99.90;;;;;;4997410;28;19930;-89
2021/01/20 14:02:45;;;;;;;;;;;10.20;99.90;;;;;;4997003;28;19937;-90
2021/01/20 14:05:12;;;;;;;;;;;10.20;99.90;;;;;;4997278;28;19926;-90
2021/01/20 14:07:39;;;;;;;;;;;10.20;99.90;;;;;;4996855;28;19933;-89
2021/01/20 14:10:06;;;;;;;;;;;10.20;99.90;;;;;;4997152;28;19940;-90
2021/01/20 14:12:32;;;;;;;;;;;10.20;99.90;;;;;;4997237;28;20260;-90
2021/01/20 14:14:59;;;;;;;;;;;10.20;99.90;;;;;;4996738;28;20346;-89
2021/01/20 14:17:25;;;;;;;;;;;10.20;99.90;;;;;;4996661;28;19936;-90
2021/01/20 14:19:51;;;;;;;;;;;10.10;99.90;;;;;;4996678;28;19926;-90
2021/01/20 14:22:20;;;;;;;;;;;10.10;99.90;;;;;;4996015;28;19932;-89
2021/01/20 14:24:47;;;;;;;;;;;10.10;99.90;;;;;;4996852;28;19926;-89
2021/01/20 14:27:14;;;;;;;;;;;10.10;99.90;;;;;;4996807;28;20266;-90